createdAt,value
2018-07-06T00:02:05.584Z,99.90
2018-07-06T00:04:45.440Z,99.90
2018-07-06T00:07:24.977Z,99.90
2018-07-06T00:10:04.617Z,99.90
2018-07-06T00:12:44.295Z,99.90
2018-07-06T00:15:23.846Z,99.90
2018-07-06T00:18:03.317Z,99.90
2018-07-06T00:20:42.968Z,99.90
2018-07-06T00:25:56.451Z,99.90
2018-07-06T00:28:36.179Z,99.90
2018-07-06T00:31:15.894Z,99.90
2018-07-06T00:36:29.182Z,99.90
2018-07-06T00:39:08.626Z,99.90
2018-07-06T00:41:48.272Z,99.90
2018-07-06T00:44:27.940Z,99.90
2018-07-06T00:47:07.647Z,99.90
2018-07-06T00:49:47.386Z,99.90
2018-07-06T00:52:27.056Z,99.90
2018-07-06T00:55:06.627Z,99.90
2018-07-06T00:57:50.483Z,99.90
2018-07-06T01:03:04.025Z,99.90
2018-07-06T01:05:43.575Z,99.90
2018-07-06T01:10:56.947Z,99.90
2018-07-06T01:13:36.604Z,99.90
2018-07-06T01:16:16.404Z,99.90
2018-07-06T01:21:29.824Z,99.90
2018-07-06T01:24:09.567Z,99.90
2018-07-06T01:26:49.269Z,99.90
2018-07-06T01:29:28.819Z,99.90
2018-07-06T01:32:08.557Z,99.90
2018-07-06T01:34:48.238Z,99.90
2018-07-06T01:37:27.818Z,99.90
2018-07-06T01:40:07.589Z,99.90
2018-07-06T01:42:47.262Z,99.90
2018-07-06T01:45:26.993Z,99.90
2018-07-06T01:48:06.591Z,99.90
2018-07-06T01:53:19.943Z,99.90
2018-07-06T01:55:59.613Z,99.90
2018-07-06T01:58:39.219Z,99.90
2018-07-06T02:03:52.837Z,99.90
2018-07-06T02:06:32.303Z,99.90
2018-07-06T02:11:45.683Z,99.90
2018-07-06T02:14:25.438Z,99.90
2018-07-06T02:17:05.161Z,99.90
2018-07-06T02:19:44.786Z,99.90
2018-07-06T02:24:58.605Z,99.90
2018-07-06T02:27:38.274Z,99.90
2018-07-06T02:30:17.904Z,99.90
2018-07-06T02:32:57.585Z,99.90
2018-07-06T02:35:37.660Z,99.90
2018-07-06T02:38:17.434Z,99.90
2018-07-06T02:40:57.248Z,99.90
2018-07-06T02:43:37.010Z,99.90
2018-07-06T02:46:16.672Z,99.90
2018-07-06T02:48:56.395Z,99.90
2018-07-06T02:51:36.018Z,99.90
2018-07-06T02:54:15.503Z,99.90
2018-07-06T02:56:55.090Z,99.90
2018-07-06T02:59:34.687Z,99.90
2018-07-06T03:02:14.341Z,99.90
2018-07-06T03:04:53.908Z,99.90
2018-07-06T03:10:07.081Z,99.90
2018-07-06T03:12:46.819Z,99.90
2018-07-06T03:15:26.404Z,99.90
2018-07-06T03:18:06.203Z,99.90
2018-07-06T03:20:45.786Z,99.90
2018-07-06T03:23:25.595Z,99.90
2018-07-06T03:26:05.271Z,99.90
2018-07-06T03:28:45.311Z,99.90
2018-07-06T03:31:24.553Z,99.90
2018-07-06T03:34:04.362Z,99.90
2018-07-06T03:36:43.859Z,99.90
2018-07-06T03:39:23.490Z,99.90
2018-07-06T03:42:03.068Z,99.90
2018-07-06T03:44:42.815Z,99.90
2018-07-06T03:47:22.272Z,99.90
2018-07-06T03:50:01.929Z,99.90
2018-07-06T03:52:41.567Z,99.90
2018-07-06T03:55:21.612Z,99.90
2018-07-06T03:58:02.887Z,99.90
2018-07-06T04:00:42.583Z,99.90
2018-07-06T04:03:22.344Z,99.90
2018-07-06T04:06:02.240Z,99.90
2018-07-06T04:08:41.962Z,99.90
2018-07-06T04:11:21.806Z,99.90
2018-07-06T04:14:01.462Z,99.90
2018-07-06T04:16:41.116Z,99.90
2018-07-06T04:19:20.840Z,99.90
2018-07-06T04:22:00.501Z,99.90
2018-07-06T04:24:39.958Z,99.90
2018-07-06T04:27:19.676Z,99.90
2018-07-06T04:29:59.213Z,99.90
2018-07-06T04:32:38.815Z,99.90
2018-07-06T04:35:18.506Z,99.90
2018-07-06T04:37:58.179Z,99.90
2018-07-06T04:40:37.911Z,99.90
2018-07-06T04:43:17.559Z,99.90
2018-07-06T04:45:57.282Z,99.90
2018-07-06T04:48:36.983Z,99.90
2018-07-06T04:53:50.314Z,99.90
2018-07-06T04:56:30.034Z,99.90
2018-07-06T04:59:09.852Z,99.90
2018-07-06T05:01:49.554Z,99.90
2018-07-06T05:04:29.095Z,99.90
2018-07-06T05:07:08.883Z,99.90
2018-07-06T05:09:48.638Z,99.90
2018-07-06T05:12:28.356Z,99.90
2018-07-06T05:15:08.043Z,99.90
2018-07-06T05:17:47.735Z,99.90
2018-07-06T05:23:01.233Z,99.90
2018-07-06T05:25:40.977Z,99.90
2018-07-06T05:28:20.724Z,99.90
2018-07-06T05:31:00.395Z,99.90
2018-07-06T05:33:40.080Z,99.90
2018-07-06T05:36:19.764Z,99.90
2018-07-06T05:38:59.234Z,99.90
2018-07-06T05:41:38.580Z,99.90
2018-07-06T05:44:18.337Z,99.90
2018-07-06T05:46:58.028Z,99.90
2018-07-06T05:49:37.606Z,99.90
2018-07-06T05:54:50.696Z,99.90
2018-07-06T05:57:30.289Z,99.90
2018-07-06T06:00:10.070Z,99.90
2018-07-06T06:02:49.568Z,99.90
2018-07-06T06:07:50.528Z,99.90
2018-07-06T06:12:46.819Z,99.90
2018-07-06T06:15:15.098Z,99.90
2018-07-06T06:17:43.382Z,99.90
2018-07-06T06:20:14.774Z,99.90
2018-07-06T06:25:11.380Z,99.90
2018-07-06T06:27:39.721Z,99.90
2018-07-06T06:30:08.029Z,99.90
2018-07-06T06:32:36.651Z,99.90
2018-07-06T06:35:04.948Z,99.90
2018-07-06T06:37:33.298Z,99.90
2018-07-06T06:40:01.711Z,99.90
2018-07-06T06:42:30.039Z,99.90
2018-07-06T06:44:58.315Z,99.90
2018-07-06T06:47:26.693Z,99.90
2018-07-06T06:49:55.014Z,99.90
2018-07-06T06:54:51.346Z,99.90
2018-07-06T06:57:19.684Z,99.90
2018-07-06T06:59:50.020Z,99.90
2018-07-06T07:02:18.352Z,99.90
2018-07-06T07:04:46.677Z,99.90
2018-07-06T07:07:15.139Z,99.90
2018-07-06T07:09:43.462Z,99.90
2018-07-06T07:12:11.748Z,99.90
2018-07-06T07:14:40.149Z,99.90
2018-07-06T07:17:08.520Z,99.90
2018-07-06T07:19:36.929Z,99.90
2018-07-06T07:22:05.188Z,99.90
2018-07-06T07:24:33.614Z,99.90
2018-07-06T07:27:01.978Z,99.90
2018-07-06T07:29:30.479Z,99.90
2018-07-06T07:31:58.927Z,99.90
2018-07-06T07:34:27.552Z,99.90
2018-07-06T07:39:23.969Z,99.90
2018-07-06T07:41:52.602Z,99.90
2018-07-06T07:44:21.130Z,99.90
2018-07-06T07:46:49.448Z,99.90
2018-07-06T07:49:17.722Z,99.90
2018-07-06T07:54:33.012Z,99.90
2018-07-06T07:57:02.296Z,99.90
2018-07-06T07:59:32.227Z,99.90
2018-07-06T08:02:01.361Z,99.90
2018-07-06T08:04:29.666Z,99.90
2018-07-06T08:06:58.249Z,99.90
2018-07-06T08:09:27.331Z,99.90
2018-07-06T08:11:57.136Z,99.90
2018-07-06T08:14:25.549Z,99.90
2018-07-06T08:16:53.896Z,99.90
2018-07-06T08:19:22.459Z,99.90
2018-07-06T08:21:51.066Z,99.90
2018-07-06T08:24:19.975Z,99.90
2018-07-06T08:26:48.529Z,99.90
2018-07-06T08:29:16.906Z,99.90
2018-07-06T08:31:45.466Z,99.90
2018-07-06T08:34:25.194Z,99.90
2018-07-06T08:37:37.368Z,99.90
2018-07-06T08:40:05.694Z,99.90
2018-07-06T08:42:36.022Z,99.90
2018-07-06T08:45:04.773Z,99.90
2018-07-06T08:47:33.105Z,99.90
2018-07-06T08:50:02.198Z,99.90
2018-07-06T08:52:30.807Z,99.90
2018-07-06T08:54:59.197Z,99.90
2018-07-06T08:57:28.882Z,97.90
2018-07-06T08:59:57.645Z,96.50
2018-07-06T09:02:26.248Z,95.40
2018-07-06T09:04:55.350Z,96.60
2018-07-06T09:07:24.014Z,96.80
2018-07-06T09:09:52.797Z,99.10
2018-07-06T09:12:21.180Z,99.90
2018-07-06T09:14:49.508Z,99.90
2018-07-06T09:17:18.895Z,99.90
2018-07-06T09:19:47.670Z,99.90
2018-07-06T09:22:16.465Z,99.70
2018-07-06T09:24:45.567Z,99.80
2018-07-06T09:27:14.032Z,98.70
2018-07-06T09:29:42.415Z,99.90
2018-07-06T09:32:10.803Z,99.90
2018-07-06T09:34:39.486Z,99.90
2018-07-06T09:37:07.977Z,99.90
2018-07-06T09:39:36.664Z,99.80
2018-07-06T09:42:04.975Z,99.80
2018-07-06T09:44:33.521Z,98.90
2018-07-06T09:47:01.820Z,99.10
2018-07-06T09:49:30.095Z,96.80
2018-07-06T09:51:58.458Z,95.60
2018-07-06T09:54:26.752Z,94.80
2018-07-06T09:56:55.102Z,94.20
2018-07-06T09:59:23.443Z,93.60
2018-07-06T10:01:51.864Z,93.20
2018-07-06T10:04:20.194Z,93.90
2018-07-06T10:06:48.533Z,92.20
2018-07-06T10:09:16.824Z,92.50
2018-07-06T10:11:45.099Z,95.10
2018-07-06T10:14:13.424Z,96.10
2018-07-06T10:16:41.766Z,94.80
2018-07-06T10:21:38.101Z,91.50
2018-07-06T10:24:06.497Z,89.20
2018-07-06T10:26:34.959Z,88.30
2018-07-06T10:30:19.372Z,88.60
2018-07-06T10:32:47.808Z,85.30
2018-07-06T10:35:16.116Z,79.80
2018-07-06T10:37:44.423Z,79.90
2018-07-06T10:40:12.780Z,81.60
2018-07-06T10:42:41.151Z,74.50
2018-07-06T10:45:09.519Z,70.10
2018-07-06T10:47:37.787Z,68.90
2018-07-06T10:50:06.125Z,67.90
2018-07-06T10:52:34.446Z,74.10
2018-07-06T10:55:02.787Z,73.10
2018-07-06T10:57:31.086Z,75.70
2018-07-06T10:59:59.423Z,71.30
2018-07-06T11:02:27.746Z,68.80
2018-07-06T11:04:56.363Z,63.20
2018-07-06T11:07:24.723Z,65.10
2018-07-06T11:09:53.091Z,61.60
2018-07-06T11:12:21.383Z,60.30
2018-07-06T11:14:49.680Z,63.00
2018-07-06T11:17:17.993Z,63.80
2018-07-06T11:19:46.243Z,61.00
2018-07-06T11:22:14.503Z,60.50
2018-07-06T11:24:42.851Z,58.80
2018-07-06T11:27:11.121Z,58.60
2018-07-06T11:29:39.967Z,57.30
2018-07-06T11:32:08.552Z,56.70
2018-07-06T11:34:36.847Z,58.60
2018-07-06T11:37:05.199Z,57.00
2018-07-06T11:39:34.490Z,57.30
2018-07-06T11:42:02.742Z,56.50
2018-07-06T11:44:31.099Z,57.40
2018-07-06T11:46:59.387Z,53.40
2018-07-06T11:49:27.759Z,56.90
2018-07-06T11:51:56.046Z,57.10
2018-07-06T11:54:24.390Z,57.40
2018-07-06T11:56:52.699Z,57.80
2018-07-06T11:59:20.970Z,55.90
2018-07-06T12:01:49.424Z,53.40
2018-07-06T12:04:17.803Z,52.80
2018-07-06T12:06:46.153Z,52.40
2018-07-06T12:09:15.106Z,50.80
2018-07-06T12:11:43.509Z,48.60
2018-07-06T12:14:11.934Z,47.70
2018-07-06T12:16:40.266Z,47.50
2018-07-06T12:19:08.576Z,52.10
2018-07-06T12:21:36.870Z,52.20
2018-07-06T12:26:33.306Z,52.30
2018-07-06T12:29:01.737Z,52.00
2018-07-06T12:31:30.409Z,52.70
2018-07-06T12:33:58.739Z,54.00
2018-07-06T12:36:27.068Z,57.20
2018-07-06T12:38:55.406Z,57.70
2018-07-06T12:43:51.779Z,53.70
2018-07-06T12:46:20.058Z,54.40
2018-07-06T12:48:48.509Z,54.40
2018-07-06T12:51:17.103Z,56.00
2018-07-06T12:53:45.476Z,54.10
2018-07-06T12:56:13.754Z,54.00
2018-07-06T12:58:42.076Z,55.50
2018-07-06T13:03:38.389Z,57.80
2018-07-06T13:06:06.732Z,59.10
2018-07-06T13:08:36.167Z,59.70
2018-07-06T13:11:04.440Z,60.00
2018-07-06T13:16:00.732Z,59.30
2018-07-06T13:18:29.073Z,60.70
2018-07-06T13:23:26.373Z,64.40
2018-07-06T13:25:54.814Z,67.00
2018-07-06T13:28:23.045Z,67.40
2018-07-06T13:30:51.337Z,66.20
2018-07-06T13:33:26.556Z,64.60
2018-07-06T13:35:54.832Z,63.00
2018-07-06T13:38:23.086Z,63.40
2018-07-06T13:40:51.409Z,60.20
2018-07-06T13:43:19.650Z,63.50
2018-07-06T13:45:47.940Z,62.50
2018-07-06T13:48:16.269Z,63.00
2018-07-06T13:53:12.863Z,62.30
2018-07-06T13:55:41.185Z,62.50
2018-07-06T13:58:09.520Z,65.00
2018-07-06T14:00:37.892Z,65.10
2018-07-06T14:03:06.250Z,63.30
2018-07-06T14:05:35.800Z,64.20
2018-07-06T14:08:04.093Z,64.20
2018-07-06T14:10:32.408Z,63.40
2018-07-06T14:13:00.797Z,63.20
2018-07-06T14:15:29.033Z,62.80
2018-07-06T14:20:25.436Z,63.90
2018-07-06T14:22:53.954Z,63.10
2018-07-06T14:25:22.208Z,64.10
2018-07-06T14:27:50.525Z,62.00
2018-07-06T14:30:18.811Z,62.70
2018-07-06T14:32:47.091Z,63.00
2018-07-06T14:35:15.388Z,64.00
2018-07-06T14:37:43.701Z,62.90
2018-07-06T14:40:11.995Z,64.10
2018-07-06T14:42:40.218Z,65.70
2018-07-06T14:45:08.504Z,66.10
2018-07-06T14:47:36.876Z,67.00
2018-07-06T14:50:05.173Z,67.20
2018-07-06T14:52:33.454Z,66.60
2018-07-06T14:55:01.705Z,65.60
2018-07-06T14:57:29.958Z,66.00
2018-07-06T14:59:58.285Z,66.20
2018-07-06T15:02:26.515Z,64.40
2018-07-06T15:04:54.873Z,66.40
2018-07-06T15:07:23.116Z,65.30
2018-07-06T15:09:51.356Z,66.70
2018-07-06T15:12:19.645Z,67.90
2018-07-06T15:14:47.940Z,69.30
2018-07-06T15:17:16.202Z,70.50
2018-07-06T15:19:44.528Z,74.70
2018-07-06T15:24:41.392Z,76.60
2018-07-06T15:29:37.652Z,77.30
2018-07-06T15:32:06.126Z,78.20
2018-07-06T15:34:34.420Z,77.50
2018-07-06T15:37:02.775Z,78.10
2018-07-06T15:39:31.088Z,78.90
2018-07-06T15:41:59.323Z,77.80
2018-07-06T15:46:55.658Z,78.30
2018-07-06T15:51:51.964Z,79.10
2018-07-06T15:54:20.215Z,78.50
2018-07-06T15:56:48.464Z,78.50
2018-07-06T15:59:16.790Z,79.90
2018-07-06T16:01:45.075Z,79.60
2018-07-06T16:04:13.392Z,78.90
2018-07-06T16:06:41.635Z,78.90
2018-07-06T16:09:09.885Z,77.80
2018-07-06T16:11:38.184Z,77.10
2018-07-06T16:14:06.537Z,75.00
2018-07-06T16:16:34.880Z,75.70
2018-07-06T16:21:31.217Z,75.80
2018-07-06T16:23:59.954Z,76.20
2018-07-06T16:26:28.434Z,74.20
2018-07-06T16:28:56.697Z,76.50
2018-07-06T16:31:25.037Z,73.40
2018-07-06T16:36:21.419Z,75.30
2018-07-06T16:38:49.640Z,75.90
2018-07-06T16:41:17.930Z,73.70
2018-07-06T16:43:46.198Z,74.20
2018-07-06T16:46:14.469Z,75.60
2018-07-06T16:48:42.730Z,74.60
2018-07-06T16:51:11.069Z,75.20
2018-07-06T16:53:39.393Z,74.20
2018-07-06T16:56:07.642Z,75.50
2018-07-06T16:58:35.964Z,74.00
2018-07-06T17:01:04.287Z,74.60
2018-07-06T17:03:32.552Z,75.10
2018-07-06T17:06:00.899Z,74.40
2018-07-06T17:08:29.192Z,73.70
2018-07-06T17:13:25.416Z,74.30
2018-07-06T17:15:53.737Z,75.00
2018-07-06T17:18:22.111Z,75.10
2018-07-06T17:20:50.399Z,76.10
2018-07-06T17:23:18.701Z,77.90
2018-07-06T17:25:46.998Z,79.40
2018-07-06T17:28:15.323Z,78.90
2018-07-06T17:30:43.608Z,79.50
2018-07-06T17:33:11.935Z,77.90
2018-07-06T17:35:40.227Z,76.50
2018-07-06T17:40:36.462Z,78.10
2018-07-06T17:43:04.791Z,78.80
2018-07-06T17:45:33.082Z,78.80
2018-07-06T17:48:01.415Z,79.00
2018-07-06T17:50:29.783Z,80.40
2018-07-06T17:52:58.037Z,79.90
2018-07-06T17:55:26.293Z,79.40
2018-07-06T17:57:54.588Z,80.80
2018-07-06T18:00:22.862Z,81.10
2018-07-06T18:02:51.152Z,81.40
2018-07-06T18:05:19.430Z,81.50
2018-07-06T18:07:47.775Z,82.10
2018-07-06T18:10:16.093Z,82.00
2018-07-06T18:15:13.585Z,81.90
2018-07-06T18:17:42.550Z,81.90
2018-07-06T18:20:10.830Z,82.10
2018-07-06T18:22:39.104Z,82.00
2018-07-06T18:27:35.380Z,81.80
2018-07-06T18:30:03.716Z,82.10
2018-07-06T18:32:32.230Z,82.30
2018-07-06T18:35:00.560Z,82.50
2018-07-06T18:37:28.875Z,82.50
2018-07-06T18:39:57.110Z,81.70
2018-07-06T18:42:25.371Z,82.30
2018-07-06T18:44:53.666Z,82.60
2018-07-06T18:47:21.889Z,82.00
2018-07-06T18:49:50.178Z,82.20
2018-07-06T18:52:18.523Z,82.50
2018-07-06T18:54:46.904Z,81.90
2018-07-06T18:57:15.086Z,82.30
2018-07-06T18:59:43.376Z,83.00
2018-07-06T19:02:11.671Z,83.20
2018-07-06T19:04:39.965Z,83.50
2018-07-06T19:07:08.245Z,83.30
2018-07-06T19:09:36.792Z,83.20
2018-07-06T19:12:05.088Z,83.90
2018-07-06T19:14:33.443Z,85.10
2018-07-06T19:19:30.544Z,84.80
2018-07-06T19:21:58.883Z,85.00
2018-07-06T19:24:27.216Z,85.60
2018-07-06T19:26:55.476Z,85.00
2018-07-06T19:29:23.743Z,86.00
2018-07-06T19:31:53.039Z,86.80
2018-07-06T19:34:21.311Z,87.10
2018-07-06T19:36:49.618Z,87.10
2018-07-06T19:39:17.941Z,89.70
2018-07-06T19:41:46.206Z,88.70
2018-07-06T19:46:42.597Z,89.80
2018-07-06T19:49:10.921Z,90.40
2018-07-06T19:51:39.291Z,90.90
2018-07-06T19:59:03.788Z,91.50
2018-07-06T20:01:32.164Z,91.80
2018-07-06T20:04:00.465Z,91.50
2018-07-06T20:06:28.763Z,91.90
2018-07-06T20:08:57.029Z,91.90
2018-07-06T20:13:53.324Z,92.50
2018-07-06T20:16:21.607Z,92.70
2018-07-06T20:18:49.927Z,92.60
2018-07-06T20:23:46.474Z,93.10
2018-07-06T20:26:14.789Z,92.90
2018-07-06T20:28:43.805Z,93.50
2018-07-06T20:31:12.137Z,93.30
2018-07-06T20:33:40.432Z,93.30
2018-07-06T20:36:08.782Z,94.10
2018-07-06T20:38:37.039Z,94.00
2018-07-06T20:41:05.379Z,94.30
2018-07-06T20:43:33.675Z,94.20
2018-07-06T20:46:01.956Z,93.60
2018-07-06T20:48:30.400Z,94.70
2018-07-06T20:50:58.884Z,93.80
2018-07-06T20:53:27.532Z,94.20
2018-07-06T20:55:55.860Z,95.00
2018-07-06T20:58:24.138Z,94.30
2018-07-06T21:00:52.433Z,94.90
2018-07-06T21:03:20.710Z,94.50
2018-07-06T21:05:49.047Z,94.60
2018-07-06T21:08:17.308Z,94.60
2018-07-06T21:10:46.204Z,95.40
2018-07-06T21:13:14.584Z,95.00
2018-07-06T21:15:45.060Z,95.00
2018-07-06T21:18:14.697Z,95.30
2018-07-06T21:20:43.255Z,96.00
2018-07-06T21:23:11.848Z,95.20
2018-07-06T21:25:40.768Z,95.50
2018-07-06T21:28:09.221Z,96.10
2018-07-06T21:30:37.857Z,96.70
2018-07-06T21:33:06.401Z,97.10
2018-07-06T21:35:34.830Z,97.70
2018-07-06T21:38:03.289Z,97.80
2018-07-06T21:40:31.785Z,97.40
2018-07-06T21:43:00.197Z,97.90
2018-07-06T21:45:28.791Z,98.00
2018-07-06T21:47:57.186Z,98.30
2018-07-06T21:50:25.618Z,98.50
2018-07-06T21:52:54.199Z,99.10
2018-07-06T21:55:22.815Z,98.90
2018-07-06T21:57:51.164Z,99.00
2018-07-06T22:00:29.428Z,99.30
2018-07-06T22:02:57.769Z,99.90
2018-07-06T22:05:26.208Z,99.90
2018-07-06T22:07:54.663Z,99.90
2018-07-06T22:10:22.947Z,99.90
2018-07-06T22:12:51.192Z,99.90
2018-07-06T22:15:19.521Z,99.90
2018-07-06T22:17:47.823Z,99.90
2018-07-06T22:20:16.124Z,99.90
2018-07-06T22:22:44.455Z,99.90
2018-07-06T22:25:12.753Z,99.90
2018-07-06T22:27:41.019Z,99.90
2018-07-06T22:30:09.351Z,99.90
2018-07-06T22:32:37.622Z,99.90
2018-07-06T22:35:05.893Z,99.90
2018-07-06T22:40:02.137Z,99.90
2018-07-06T22:42:30.472Z,99.90
2018-07-06T22:44:58.758Z,99.90
2018-07-06T22:47:27.031Z,99.90
2018-07-06T22:49:55.310Z,99.90
2018-07-06T22:52:24.414Z,99.90
2018-07-06T22:54:52.710Z,99.90
2018-07-06T22:57:20.987Z,99.90
2018-07-06T22:59:49.222Z,99.90
2018-07-06T23:02:17.562Z,99.90
2018-07-06T23:04:45.844Z,99.90
2018-07-06T23:07:14.118Z,99.90
2018-07-06T23:09:42.616Z,99.90
2018-07-06T23:12:10.884Z,99.90
2018-07-06T23:14:39.134Z,99.90
2018-07-06T23:19:35.397Z,99.90
2018-07-06T23:22:03.687Z,99.90
2018-07-06T23:24:31.962Z,99.90
2018-07-06T23:27:00.294Z,99.90
2018-07-06T23:29:28.536Z,99.90
2018-07-06T23:31:56.806Z,99.90
2018-07-06T23:34:25.064Z,99.90
2018-07-06T23:36:53.357Z,99.90
2018-07-06T23:39:21.591Z,99.90
2018-07-06T23:41:49.846Z,99.90
2018-07-06T23:44:18.104Z,99.90
2018-07-06T23:46:46.376Z,99.90
2018-07-06T23:49:14.722Z,99.90
2018-07-06T23:51:42.969Z,99.90
2018-07-06T23:54:11.234Z,99.90
2018-07-06T23:56:39.495Z,99.90
2018-07-06T23:59:07.758Z,99.90
